sensor_id;sensor_type;location;lat;lon;timestamp;temperature;humidity
52451;DHT22;38366;53.176;6.540;2023-02-28T00:00:47;5.20;99.90
52451;DHT22;38366;53.176;6.540;2023-02-28T00:03:12;5.20;99.90
52451;DHT22;38366;53.176;6.540;2023-02-28T00:05:38;5.10;99.90
52451;DHT22;38366;53.176;6.540;2023-02-28T00:08:04;5.00;99.90
52451;DHT22;38366;53.176;6.540;2023-02-28T00:10:31;5.00;99.90
52451;DHT22;38366;53.176;6.540;2023-02-28T00:13:03;4.90;99.90
52451;DHT22;38366;53.176;6.540;2023-02-28T00:15:30;4.90;99.90
52451;DHT22;38366;53.176;6.540;2023-02-28T00:17:57;4.90;99.90
52451;DHT22;38366;53.176;6.540;2023-02-28T00:20:23;4.90;99.90
52451;DHT22;38366;53.176;6.540;2023-02-28T00:22:50;4.90;99.90
52451;DHT22;38366;53.176;6.540;2023-02-28T00:25:19;4.90;99.90
52451;DHT22;38366;53.176;6.540;2023-02-28T00:27:46;4.90;99.90
52451;DHT22;38366;53.176;6.540;2023-02-28T00:30:14;4.90;99.90
52451;DHT22;38366;53.176;6.540;2023-02-28T00:32:40;4.90;99.90
52451;DHT22;38366;53.176;6.540;2023-02-28T00:35:08;4.90;99.90
52451;DHT22;38366;53.176;6.540;2023-02-28T00:37:34;4.90;99.90
52451;DHT22;38366;53.176;6.540;2023-02-28T00:40:00;5.00;99.90
52451;DHT22;38366;53.176;6.540;2023-02-28T00:42:26;4.80;99.90
52451;DHT22;38366;53.176;6.540;2023-02-28T00:44:52;4.80;99.90
52451;DHT22;38366;53.176;6.540;2023-02-28T00:47:17;4.80;99.90
52451;DHT22;38366;53.176;6.540;2023-02-28T00:49:43;5.10;99.90
52451;DHT22;38366;53.176;6.540;2023-02-28T00:52:09;4.70;99.90
52451;DHT22;38366;53.176;6.540;2023-02-28T00:54:35;4.70;99.90
52451;DHT22;38366;53.176;6.540;2023-02-28T00:57:01;4.70;99.90
52451;DHT22;38366;53.176;6.540;2023-02-28T00:59:27;5.50;99.90
52451;DHT22;38366;53.176;6.540;2023-02-28T01:01:52;5.10;99.90
52451;DHT22;38366;53.176;6.540;2023-02-28T01:04:18;4.70;99.90
52451;DHT22;38366;53.176;6.540;2023-02-28T01:06:44;4.70;99.90
52451;DHT22;38366;53.176;6.540;2023-02-28T01:09:10;5.00;99.90
52451;DHT22;38366;53.176;6.540;2023-02-28T01:11:37;5.20;99.90
52451;DHT22;38366;53.176;6.540;2023-02-28T01:14:03;5.10;99.90
52451;DHT22;38366;53.176;6.540;2023-02-28T01:16:29;5.40;99.90
52451;DHT22;38366;53.176;6.540;2023-02-28T01:18:55;4.80;99.90
52451;DHT22;38366;53.176;6.540;2023-02-28T01:21:21;4.70;99.90
52451;DHT22;38366;53.176;6.540;2023-02-28T01:23:48;4.70;99.90
52451;DHT22;38366;53.176;6.540;2023-02-28T01:26:19;4.80;99.90
52451;DHT22;38366;53.176;6.540;2023-02-28T01:28:46;5.30;99.90
52451;DHT22;38366;53.176;6.540;2023-02-28T01:31:13;4.70;99.90
52451;DHT22;38366;53.176;6.540;2023-02-28T01:33:38;4.80;99.90
52451;DHT22;38366;53.176;6.540;2023-02-28T01:36:07;4.80;99.90
52451;DHT22;38366;53.176;6.540;2023-02-28T01:38:34;4.70;99.90
52451;DHT22;38366;53.176;6.540;2023-02-28T01:41:00;4.70;99.90
52451;DHT22;38366;53.176;6.540;2023-02-28T01:46:08;4.70;99.90
52451;DHT22;38366;53.176;6.540;2023-02-28T01:48:42;4.70;99.90
52451;DHT22;38366;53.176;6.540;2023-02-28T01:51:17;4.60;99.90
52451;DHT22;38366;53.176;6.540;2023-02-28T01:53:57;4.60;99.90
52451;DHT22;38366;53.176;6.540;2023-02-28T01:56:28;4.80;99.90
52451;DHT22;38366;53.176;6.540;2023-02-28T01:58:55;4.60;99.90
52451;DHT22;38366;53.176;6.540;2023-02-28T02:01:22;4.60;99.90
52451;DHT22;38366;53.176;6.540;2023-02-28T02:03:53;4.60;99.90
52451;DHT22;38366;53.176;6.540;2023-02-28T02:06:25;4.60;99.90
52451;DHT22;38366;53.176;6.540;2023-02-28T02:08:53;4.60;99.90
52451;DHT22;38366;53.176;6.540;2023-02-28T02:11:20;4.70;99.90
52451;DHT22;38366;53.176;6.540;2023-02-28T02:16:33;4.60;99.90
52451;DHT22;38366;53.176;6.540;2023-02-28T02:19:21;4.60;99.90
52451;DHT22;38366;53.176;6.540;2023-02-28T02:22:07;4.70;99.90
52451;DHT22;38366;53.176;6.540;2023-02-28T02:25:02;4.70;99.90
52451;DHT22;38366;53.176;6.540;2023-02-28T02:28:04;4.70;99.90
52451;DHT22;38366;53.176;6.540;2023-02-28T02:30:57;4.70;99.90
52451;DHT22;38366;53.176;6.540;2023-02-28T02:36:30;4.70;99.90
52451;DHT22;38366;53.176;6.540;2023-02-28T02:39:30;4.70;99.90
52451;DHT22;38366;53.176;6.540;2023-02-28T02:42:00;4.60;99.90
52451;DHT22;38366;53.176;6.540;2023-02-28T02:44:36;4.70;99.90
52451;DHT22;38366;53.176;6.540;2023-02-28T02:47:09;5.10;99.90
52451;DHT22;38366;53.176;6.540;2023-02-28T02:49:37;4.70;99.90
52451;DHT22;38366;53.176;6.540;2023-02-28T02:52:07;4.70;99.90
52451;DHT22;38366;53.176;6.540;2023-02-28T02:54:36;5.10;99.90
52451;DHT22;38366;53.176;6.540;2023-02-28T02:57:15;4.60;99.90
52451;DHT22;38366;53.176;6.540;2023-02-28T02:59:44;4.70;99.90
52451;DHT22;38366;53.176;6.540;2023-02-28T03:02:12;4.60;99.90
52451;DHT22;38366;53.176;6.540;2023-02-28T03:04:43;4.90;99.90
52451;DHT22;38366;53.176;6.540;2023-02-28T03:07:10;4.70;99.90
52451;DHT22;38366;53.176;6.540;2023-02-28T03:09:36;4.60;99.90
52451;DHT22;38366;53.176;6.540;2023-02-28T03:12:03;4.60;99.90
52451;DHT22;38366;53.176;6.540;2023-02-28T03:23:23;4.60;99.90
52451;DHT22;38366;53.176;6.540;2023-02-28T03:26:05;4.80;99.90
52451;DHT22;38366;53.176;6.540;2023-02-28T03:31:26;4.60;99.90
52451;DHT22;38366;53.176;6.540;2023-02-28T03:34:04;4.60;99.90
52451;DHT22;38366;53.176;6.540;2023-02-28T03:36:37;4.60;99.90
52451;DHT22;38366;53.176;6.540;2023-02-28T03:39:17;4.50;99.90
52451;DHT22;38366;53.176;6.540;2023-02-28T03:41:57;4.50;99.90
52451;DHT22;38366;53.176;6.540;2023-02-28T03:47:26;4.50;99.90
52451;DHT22;38366;53.176;6.540;2023-02-28T03:49:59;4.40;99.90
52451;DHT22;38366;53.176;6.540;2023-02-28T03:52:29;4.40;99.90
52451;DHT22;38366;53.176;6.540;2023-02-28T03:55:00;4.40;99.90
52451;DHT22;38366;53.176;6.540;2023-02-28T03:58:05;4.60;99.90
52451;DHT22;38366;53.176;6.540;2023-02-28T04:00:39;4.30;99.90
52451;DHT22;38366;53.176;6.540;2023-02-28T04:03:05;4.30;99.90
52451;DHT22;38366;53.176;6.540;2023-02-28T04:05:32;4.30;99.90
52451;DHT22;38366;53.176;6.540;2023-02-28T04:08:06;4.30;99.90
52451;DHT22;38366;53.176;6.540;2023-02-28T04:10:32;4.20;99.90
52451;DHT22;38366;53.176;6.540;2023-02-28T04:12:58;4.20;99.90
52451;DHT22;38366;53.176;6.540;2023-02-28T04:15:24;4.60;99.90
52451;DHT22;38366;53.176;6.540;2023-02-28T04:17:50;4.20;99.90
52451;DHT22;38366;53.176;6.540;2023-02-28T04:20:16;4.30;99.90
52451;DHT22;38366;53.176;6.540;2023-02-28T04:22:42;4.20;99.90
52451;DHT22;38366;53.176;6.540;2023-02-28T04:25:08;5.10;99.90
52451;DHT22;38366;53.176;6.540;2023-02-28T04:27:34;4.30;99.90
52451;DHT22;38366;53.176;6.540;2023-02-28T04:30:00;4.10;99.90
52451;DHT22;38366;53.176;6.540;2023-02-28T04:32:25;4.10;99.90
52451;DHT22;38366;53.176;6.540;2023-02-28T04:34:51;4.00;99.90
52451;DHT22;38366;53.176;6.540;2023-02-28T04:37:17;4.00;99.90
52451;DHT22;38366;53.176;6.540;2023-02-28T04:39:43;4.00;99.90
52451;DHT22;38366;53.176;6.540;2023-02-28T04:42:09;4.00;99.90
52451;DHT22;38366;53.176;6.540;2023-02-28T04:44:35;4.10;99.90
52451;DHT22;38366;53.176;6.540;2023-02-28T04:47:00;3.90;99.90
52451;DHT22;38366;53.176;6.540;2023-02-28T04:49:26;3.90;99.90
52451;DHT22;38366;53.176;6.540;2023-02-28T04:51:52;3.90;99.90
52451;DHT22;38366;53.176;6.540;2023-02-28T04:54:18;3.80;99.90
52451;DHT22;38366;53.176;6.540;2023-02-28T04:56:44;4.10;99.90
52451;DHT22;38366;53.176;6.540;2023-02-28T04:59:10;4.00;99.90
52451;DHT22;38366;53.176;6.540;2023-02-28T05:01:35;3.80;99.90
52451;DHT22;38366;53.176;6.540;2023-02-28T05:04:03;3.80;99.90
52451;DHT22;38366;53.176;6.540;2023-02-28T05:06:33;3.80;99.90
52451;DHT22;38366;53.176;6.540;2023-02-28T05:08:59;3.70;99.90
52451;DHT22;38366;53.176;6.540;2023-02-28T05:11:31;3.70;99.90
52451;DHT22;38366;53.176;6.540;2023-02-28T05:14:11;3.70;99.90
52451;DHT22;38366;53.176;6.540;2023-02-28T05:16:37;3.90;99.90
52451;DHT22;38366;53.176;6.540;2023-02-28T05:19:03;3.70;99.90
52451;DHT22;38366;53.176;6.540;2023-02-28T05:21:34;3.70;99.90
52451;DHT22;38366;53.176;6.540;2023-02-28T05:24:02;4.10;99.90
52451;DHT22;38366;53.176;6.540;2023-02-28T05:26:28;3.60;99.90
52451;DHT22;38366;53.176;6.540;2023-02-28T05:28:55;3.60;99.90
52451;DHT22;38366;53.176;6.540;2023-02-28T05:31:23;4.90;99.90
52451;DHT22;38366;53.176;6.540;2023-02-28T05:33:48;3.50;99.90
52451;DHT22;38366;53.176;6.540;2023-02-28T05:36:14;3.60;99.90
52451;DHT22;38366;53.176;6.540;2023-02-28T05:38:40;3.60;99.90
52451;DHT22;38366;53.176;6.540;2023-02-28T05:41:07;3.70;99.90
52451;DHT22;38366;53.176;6.540;2023-02-28T05:43:34;3.50;99.90
52451;DHT22;38366;53.176;6.540;2023-02-28T05:46:05;3.50;99.90
52451;DHT22;38366;53.176;6.540;2023-02-28T05:48:31;3.50;99.90
52451;DHT22;38366;53.176;6.540;2023-02-28T05:50:57;3.50;99.90
52451;DHT22;38366;53.176;6.540;2023-02-28T05:53:23;3.50;99.90
52451;DHT22;38366;53.176;6.540;2023-02-28T05:55:49;3.40;99.90
52451;DHT22;38366;53.176;6.540;2023-02-28T05:58:14;3.40;99.90
52451;DHT22;38366;53.176;6.540;2023-02-28T06:00:40;3.40;99.90
52451;DHT22;38366;53.176;6.540;2023-02-28T06:03:06;3.40;99.90
52451;DHT22;38366;53.176;6.540;2023-02-28T06:05:31;3.40;99.90
52451;DHT22;38366;53.176;6.540;2023-02-28T06:07:58;3.50;99.90
52451;DHT22;38366;53.176;6.540;2023-02-28T06:10:24;3.40;99.90
52451;DHT22;38366;53.176;6.540;2023-02-28T06:12:49;3.40;99.90
52451;DHT22;38366;53.176;6.540;2023-02-28T06:15:16;3.90;99.90
52451;DHT22;38366;53.176;6.540;2023-02-28T06:17:42;4.50;99.90
52451;DHT22;38366;53.176;6.540;2023-02-28T06:20:11;3.40;99.90
52451;DHT22;38366;53.176;6.540;2023-02-28T06:22:39;3.40;99.90
52451;DHT22;38366;53.176;6.540;2023-02-28T06:25:05;3.40;99.90
52451;DHT22;38366;53.176;6.540;2023-02-28T06:27:32;3.40;99.90
52451;DHT22;38366;53.176;6.540;2023-02-28T06:29:58;3.50;99.90
52451;DHT22;38366;53.176;6.540;2023-02-28T06:32:24;3.80;99.90
52451;DHT22;38366;53.176;6.540;2023-02-28T06:34:50;3.40;99.90
52451;DHT22;38366;53.176;6.540;2023-02-28T06:37:16;3.60;99.90
52451;DHT22;38366;53.176;6.540;2023-02-28T06:39:42;3.40;99.90
52451;DHT22;38366;53.176;6.540;2023-02-28T06:42:08;3.30;99.90
52451;DHT22;38366;53.176;6.540;2023-02-28T06:44:33;3.80;99.90
52451;DHT22;38366;53.176;6.540;2023-02-28T06:47:06;3.20;99.90
52451;DHT22;38366;53.176;6.540;2023-02-28T06:49:33;3.20;99.90
52451;DHT22;38366;53.176;6.540;2023-02-28T06:51:59;3.20;99.90
52451;DHT22;38366;53.176;6.540;2023-02-28T06:54:25;3.00;99.90
52451;DHT22;38366;53.176;6.540;2023-02-28T06:56:51;3.00;99.90
52451;DHT22;38366;53.176;6.540;2023-02-28T06:59:17;3.10;99.90
52451;DHT22;38366;53.176;6.540;2023-02-28T07:01:43;2.90;99.90
52451;DHT22;38366;53.176;6.540;2023-02-28T07:04:08;3.50;99.90
52451;DHT22;38366;53.176;6.540;2023-02-28T07:06:34;2.90;99.90
52451;DHT22;38366;53.176;6.540;2023-02-28T07:09:00;2.90;99.90
52451;DHT22;38366;53.176;6.540;2023-02-28T07:11:27;3.90;99.90
52451;DHT22;38366;53.176;6.540;2023-02-28T07:13:56;2.90;99.90
52451;DHT22;38366;53.176;6.540;2023-02-28T07:16:23;3.50;99.90
52451;DHT22;38366;53.176;6.540;2023-02-28T07:18:51;3.00;99.90
52451;DHT22;38366;53.176;6.540;2023-02-28T07:21:17;2.90;99.90
52451;DHT22;38366;53.176;6.540;2023-02-28T07:23:43;3.10;99.90
52451;DHT22;38366;53.176;6.540;2023-02-28T07:26:14;2.90;99.90
52451;DHT22;38366;53.176;6.540;2023-02-28T07:28:45;3.00;99.90
52451;DHT22;38366;53.176;6.540;2023-02-28T07:31:12;2.90;99.90
52451;DHT22;38366;53.176;6.540;2023-02-28T07:33:39;3.10;99.90
52451;DHT22;38366;53.176;6.540;2023-02-28T07:36:08;3.80;99.90
52451;DHT22;38366;53.176;6.540;2023-02-28T07:38:35;3.00;99.90
52451;DHT22;38366;53.176;6.540;2023-02-28T07:41:01;3.00;99.90
52451;DHT22;38366;53.176;6.540;2023-02-28T07:43:30;3.50;99.90
52451;DHT22;38366;53.176;6.540;2023-02-28T07:46:02;3.60;99.90
52451;DHT22;38366;53.176;6.540;2023-02-28T07:48:28;3.30;99.90
52451;DHT22;38366;53.176;6.540;2023-02-28T07:50:57;3.10;99.90
52451;DHT22;38366;53.176;6.540;2023-02-28T07:53:23;3.70;99.90
52451;DHT22;38366;53.176;6.540;2023-02-28T07:55:49;3.20;99.90
52451;DHT22;38366;53.176;6.540;2023-02-28T07:58:15;3.10;99.90
52451;DHT22;38366;53.176;6.540;2023-02-28T08:00:40;3.10;99.90
52451;DHT22;38366;53.176;6.540;2023-02-28T08:03:07;3.10;99.90
52451;DHT22;38366;53.176;6.540;2023-02-28T08:05:38;3.20;99.90
52451;DHT22;38366;53.176;6.540;2023-02-28T08:08:05;3.20;99.90
52451;DHT22;38366;53.176;6.540;2023-02-28T08:10:31;3.30;99.90
52451;DHT22;38366;53.176;6.540;2023-02-28T08:12:57;3.20;99.90
52451;DHT22;38366;53.176;6.540;2023-02-28T08:15:22;3.30;99.90
52451;DHT22;38366;53.176;6.540;2023-02-28T08:17:48;3.40;99.90
52451;DHT22;38366;53.176;6.540;2023-02-28T08:20:14;3.40;99.90
52451;DHT22;38366;53.176;6.540;2023-02-28T08:22:39;3.40;99.90
52451;DHT22;38366;53.176;6.540;2023-02-28T08:25:05;3.50;99.90
52451;DHT22;38366;53.176;6.540;2023-02-28T08:27:32;3.50;99.90
52451;DHT22;38366;53.176;6.540;2023-02-28T08:29:58;3.60;99.90
52451;DHT22;38366;53.176;6.540;2023-02-28T08:32:24;3.90;99.90
52451;DHT22;38366;53.176;6.540;2023-02-28T08:34:50;3.70;99.90
52451;DHT22;38366;53.176;6.540;2023-02-28T08:37:16;3.70;99.90
52451;DHT22;38366;53.176;6.540;2023-02-28T08:39:42;3.80;99.90
52451;DHT22;38366;53.176;6.540;2023-02-28T08:42:07;3.80;99.90
52451;DHT22;38366;53.176;6.540;2023-02-28T08:44:33;3.80;99.90
52451;DHT22;38366;53.176;6.540;2023-02-28T08:46:59;3.80;99.90
52451;DHT22;38366;53.176;6.540;2023-02-28T08:49:25;3.80;99.90
52451;DHT22;38366;53.176;6.540;2023-02-28T08:51:50;3.80;99.90
52451;DHT22;38366;53.176;6.540;2023-02-28T08:54:16;3.80;99.90
52451;DHT22;38366;53.176;6.540;2023-02-28T08:56:45;3.90;99.90
52451;DHT22;38366;53.176;6.540;2023-02-28T08:59:12;4.00;99.90
52451;DHT22;38366;53.176;6.540;2023-02-28T09:01:38;4.00;99.90
52451;DHT22;38366;53.176;6.540;2023-02-28T09:04:04;4.10;99.90
52451;DHT22;38366;53.176;6.540;2023-02-28T09:06:32;4.20;99.90
52451;DHT22;38366;53.176;6.540;2023-02-28T09:08:58;4.50;99.90
52451;DHT22;38366;53.176;6.540;2023-02-28T09:11:24;4.30;99.90
52451;DHT22;38366;53.176;6.540;2023-02-28T09:13:50;4.40;99.90
52451;DHT22;38366;53.176;6.540;2023-02-28T09:16:17;4.50;99.90
52451;DHT22;38366;53.176;6.540;2023-02-28T09:18:43;4.70;99.90
52451;DHT22;38366;53.176;6.540;2023-02-28T09:21:14;4.90;99.90
52451;DHT22;38366;53.176;6.540;2023-02-28T09:23:44;5.10;99.90
52451;DHT22;38366;53.176;6.540;2023-02-28T09:26:25;5.30;99.90
52451;DHT22;38366;53.176;6.540;2023-02-28T09:28:53;5.60;99.90
52451;DHT22;38366;53.176;6.540;2023-02-28T09:31:22;6.10;99.90
52451;DHT22;38366;53.176;6.540;2023-02-28T09:33:50;6.60;99.90
52451;DHT22;38366;53.176;6.540;2023-02-28T09:36:16;7.20;99.90
52451;DHT22;38366;53.176;6.540;2023-02-28T09:38:42;8.10;99.90
52451;DHT22;38366;53.176;6.540;2023-02-28T09:41:14;8.80;99.90
52451;DHT22;38366;53.176;6.540;2023-02-28T09:43:44;9.40;99.90
52451;DHT22;38366;53.176;6.540;2023-02-28T09:49:04;11.00;99.90
52451;DHT22;38366;53.176;6.540;2023-02-28T09:51:48;11.80;99.90
52451;DHT22;38366;53.176;6.540;2023-02-28T09:54:21;12.30;99.90
52451;DHT22;38366;53.176;6.540;2023-02-28T09:56:54;12.50;99.90
52451;DHT22;38366;53.176;6.540;2023-02-28T09:59:32;12.70;99.90
52451;DHT22;38366;53.176;6.540;2023-02-28T10:05:04;13.70;99.90
52451;DHT22;38366;53.176;6.540;2023-02-28T10:12:53;14.50;99.90
52451;DHT22;38366;53.176;6.540;2023-02-28T10:15:23;14.60;99.90
52451;DHT22;38366;53.176;6.540;2023-02-28T10:17:54;15.10;99.90
52451;DHT22;38366;53.176;6.540;2023-02-28T10:20:23;15.50;99.90
52451;DHT22;38366;53.176;6.540;2023-02-28T10:23:07;15.60;99.90
52451;DHT22;38366;53.176;6.540;2023-02-28T10:25:37;15.60;99.90
52451;DHT22;38366;53.176;6.540;2023-02-28T10:28:11;15.90;99.90
52451;DHT22;38366;53.176;6.540;2023-02-28T10:30:44;15.90;99.90
52451;DHT22;38366;53.176;6.540;2023-02-28T10:33:28;15.90;99.90
52451;DHT22;38366;53.176;6.540;2023-02-28T10:35:54;16.10;99.10
52451;DHT22;38366;53.176;6.540;2023-02-28T10:38:24;15.90;99.20
52451;DHT22;38366;53.176;6.540;2023-02-28T10:40:51;16.70;99.90
52451;DHT22;38366;53.176;6.540;2023-02-28T10:43:19;16.70;97.30
52451;DHT22;38366;53.176;6.540;2023-02-28T10:49:03;16.90;98.70
52451;DHT22;38366;53.176;6.540;2023-02-28T10:51:38;17.30;97.20
52451;DHT22;38366;53.176;6.540;2023-02-28T10:54:05;17.00;95.60
52451;DHT22;38366;53.176;6.540;2023-02-28T10:56:31;17.40;96.50
52451;DHT22;38366;53.176;6.540;2023-02-28T11:01:44;17.40;95.40
52451;DHT22;38366;53.176;6.540;2023-02-28T11:07:18;17.80;94.20
52451;DHT22;38366;53.176;6.540;2023-02-28T11:09:47;17.30;94.90
52451;DHT22;38366;53.176;6.540;2023-02-28T11:14:52;17.10;93.10
52451;DHT22;38366;53.176;6.540;2023-02-28T11:17:24;16.70;92.70
52451;DHT22;38366;53.176;6.540;2023-02-28T11:19:56;16.00;92.40
52451;DHT22;38366;53.176;6.540;2023-02-28T11:22:28;15.60;93.90
52451;DHT22;38366;53.176;6.540;2023-02-28T11:25:03;15.70;94.50
52451;DHT22;38366;53.176;6.540;2023-02-28T11:29:59;15.60;94.80
52451;DHT22;38366;53.176;6.540;2023-02-28T11:32:28;15.30;94.60
52451;DHT22;38366;53.176;6.540;2023-02-28T11:37:37;15.00;95.10
52451;DHT22;38366;53.176;6.540;2023-02-28T11:40:16;15.00;94.60
52451;DHT22;38366;53.176;6.540;2023-02-28T11:48:23;16.10;94.10
52451;DHT22;38366;53.176;6.540;2023-02-28T11:56:32;14.40;94.30
52451;DHT22;38366;53.176;6.540;2023-02-28T12:01:42;15.70;93.70
52451;DHT22;38366;53.176;6.540;2023-02-28T12:04:24;16.70;92.70
52451;DHT22;38366;53.176;6.540;2023-02-28T12:21:49;18.00;89.70
52451;DHT22;38366;53.176;6.540;2023-02-28T12:26:57;16.70;90.10
52451;DHT22;38366;53.176;6.540;2023-02-28T12:29:28;16.30;91.90
52451;DHT22;38366;53.176;6.540;2023-02-28T12:32:11;16.80;91.10
52451;DHT22;38366;53.176;6.540;2023-02-28T12:34:46;17.80;91.50
52451;DHT22;38366;53.176;6.540;2023-02-28T12:37:36;18.50;90.80
52451;DHT22;38366;53.176;6.540;2023-02-28T12:40:11;19.30;87.90
52451;DHT22;38366;53.176;6.540;2023-02-28T12:42:40;19.20;88.90
52451;DHT22;38366;53.176;6.540;2023-02-28T12:45:16;18.10;89.30
52451;DHT22;38366;53.176;6.540;2023-02-28T12:47:45;18.20;90.00
52451;DHT22;38366;53.176;6.540;2023-02-28T12:50:13;18.00;90.20
52451;DHT22;38366;53.176;6.540;2023-02-28T12:58:32;17.00;90.50
52451;DHT22;38366;53.176;6.540;2023-02-28T13:04:29;16.30;90.70
52451;DHT22;38366;53.176;6.540;2023-02-28T13:09:55;14.50;91.60
52451;DHT22;38366;53.176;6.540;2023-02-28T13:12:22;14.80;92.10
52451;DHT22;38366;53.176;6.540;2023-02-28T13:14:49;15.60;92.00
52451;DHT22;38366;53.176;6.540;2023-02-28T13:17:20;16.60;91.10
52451;DHT22;38366;53.176;6.540;2023-02-28T13:19:57;16.40;90.90
52451;DHT22;38366;53.176;6.540;2023-02-28T13:25:00;16.50;90.70
52451;DHT22;38366;53.176;6.540;2023-02-28T13:27:40;15.50;91.20
52451;DHT22;38366;53.176;6.540;2023-02-28T13:33:35;14.50;92.20
52451;DHT22;38366;53.176;6.540;2023-02-28T13:38:53;13.00;92.60
52451;DHT22;38366;53.176;6.540;2023-02-28T13:49:29;11.80;94.80
52451;DHT22;38366;53.176;6.540;2023-02-28T14:00:51;11.60;94.90
52451;DHT22;38366;53.176;6.540;2023-02-28T14:08:52;11.30;94.70
52451;DHT22;38366;53.176;6.540;2023-02-28T14:11:36;10.90;94.10
52451;DHT22;38366;53.176;6.540;2023-02-28T14:14:04;11.40;94.50
52451;DHT22;38366;53.176;6.540;2023-02-28T14:16:44;11.70;94.00
52451;DHT22;38366;53.176;6.540;2023-02-28T14:19:14;11.70;94.20
52451;DHT22;38366;53.176;6.540;2023-02-28T14:27:21;11.50;95.20
52451;DHT22;38366;53.176;6.540;2023-02-28T14:37:30;11.00;95.50
52451;DHT22;38366;53.176;6.540;2023-02-28T14:39:59;10.80;96.00
52451;DHT22;38366;53.176;6.540;2023-02-28T14:42:34;11.00;96.40
52451;DHT22;38366;53.176;6.540;2023-02-28T14:45:01;11.00;95.40
52451;DHT22;38366;53.176;6.540;2023-02-28T14:47:31;11.00;95.40
52451;DHT22;38366;53.176;6.540;2023-02-28T14:49:58;11.00;95.10
52451;DHT22;38366;53.176;6.540;2023-02-28T14:52:30;10.70;94.00
52451;DHT22;38366;53.176;6.540;2023-02-28T14:55:01;10.60;94.80
52451;DHT22;38366;53.176;6.540;2023-02-28T14:57:34;10.70;94.60
52451;DHT22;38366;53.176;6.540;2023-02-28T15:02:29;11.00;95.50
52451;DHT22;38366;53.176;6.540;2023-02-28T15:07:43;11.00;95.60
52451;DHT22;38366;53.176;6.540;2023-02-28T15:10:24;11.00;96.20
52451;DHT22;38366;53.176;6.540;2023-02-28T15:12:57;10.90;96.10
52451;DHT22;38366;53.176;6.540;2023-02-28T15:21:07;10.50;96.50
52451;DHT22;38366;53.176;6.540;2023-02-28T15:23:34;10.30;96.30
52451;DHT22;38366;53.176;6.540;2023-02-28T15:26:02;10.10;96.00
52451;DHT22;38366;53.176;6.540;2023-02-28T15:28:28;10.00;96.50
52451;DHT22;38366;53.176;6.540;2023-02-28T15:30:59;9.80;96.40
52451;DHT22;38366;53.176;6.540;2023-02-28T15:33:28;9.80;96.40
52451;DHT22;38366;53.176;6.540;2023-02-28T15:36:05;9.70;96.70
52451;DHT22;38366;53.176;6.540;2023-02-28T15:38:34;9.70;96.60
52451;DHT22;38366;53.176;6.540;2023-02-28T15:41:00;9.80;97.20
52451;DHT22;38366;53.176;6.540;2023-02-28T15:43:31;9.70;97.10
52451;DHT22;38366;53.176;6.540;2023-02-28T15:48:29;9.50;96.80
52451;DHT22;38366;53.176;6.540;2023-02-28T15:51:22;9.70;96.70
52451;DHT22;38366;53.176;6.540;2023-02-28T15:56:51;9.80;96.40
52451;DHT22;38366;53.176;6.540;2023-02-28T15:59:20;9.80;96.90
52451;DHT22;38366;53.176;6.540;2023-02-28T16:02:29;9.80;97.50
52451;DHT22;38366;53.176;6.540;2023-02-28T16:07:31;9.50;97.10
52451;DHT22;38366;53.176;6.540;2023-02-28T16:09:58;9.40;97.20
52451;DHT22;38366;53.176;6.540;2023-02-28T16:12:29;9.40;97.40
52451;DHT22;38366;53.176;6.540;2023-02-28T16:15:01;9.20;97.70
52451;DHT22;38366;53.176;6.540;2023-02-28T16:17:34;9.30;98.30
52451;DHT22;38366;53.176;6.540;2023-02-28T16:20:00;9.40;98.20
52451;DHT22;38366;53.176;6.540;2023-02-28T16:22:26;9.30;98.40
52451;DHT22;38366;53.176;6.540;2023-02-28T16:24:52;9.30;98.40
52451;DHT22;38366;53.176;6.540;2023-02-28T16:27:20;9.00;98.70
52451;DHT22;38366;53.176;6.540;2023-02-28T16:29:46;8.90;99.00
52451;DHT22;38366;53.176;6.540;2023-02-28T16:32:14;8.80;99.20
52451;DHT22;38366;53.176;6.540;2023-02-28T16:34:41;8.70;99.70
52451;DHT22;38366;53.176;6.540;2023-02-28T16:37:16;8.60;99.80
52451;DHT22;38366;53.176;6.540;2023-02-28T16:39:43;8.60;99.80
52451;DHT22;38366;53.176;6.540;2023-02-28T16:42:25;8.70;99.70
52451;DHT22;38366;53.176;6.540;2023-02-28T16:44:52;8.70;99.90
52451;DHT22;38366;53.176;6.540;2023-02-28T16:47:18;8.60;99.90
52451;DHT22;38366;53.176;6.540;2023-02-28T16:49:44;8.60;99.90
52451;DHT22;38366;53.176;6.540;2023-02-28T16:52:10;8.60;99.90
52451;DHT22;38366;53.176;6.540;2023-02-28T16:54:38;8.60;99.90
52451;DHT22;38366;53.176;6.540;2023-02-28T16:57:05;8.60;99.90
52451;DHT22;38366;53.176;6.540;2023-02-28T16:59:32;8.50;99.90
52451;DHT22;38366;53.176;6.540;2023-02-28T17:01:58;8.30;99.90
52451;DHT22;38366;53.176;6.540;2023-02-28T17:04:25;8.30;99.90
52451;DHT22;38366;53.176;6.540;2023-02-28T17:06:51;8.30;99.90
52451;DHT22;38366;53.176;6.540;2023-02-28T17:09:20;8.30;99.90
52451;DHT22;38366;53.176;6.540;2023-02-28T17:11:46;8.30;99.90
52451;DHT22;38366;53.176;6.540;2023-02-28T17:14:12;8.20;99.90
52451;DHT22;38366;53.176;6.540;2023-02-28T17:16:39;8.30;99.90
52451;DHT22;38366;53.176;6.540;2023-02-28T17:19:15;8.30;99.90
52451;DHT22;38366;53.176;6.540;2023-02-28T17:21:42;8.30;99.90
52451;DHT22;38366;53.176;6.540;2023-02-28T17:24:08;8.20;99.90
52451;DHT22;38366;53.176;6.540;2023-02-28T17:26:34;8.30;99.90
52451;DHT22;38366;53.176;6.540;2023-02-28T17:29:00;8.20;99.90
52451;DHT22;38366;53.176;6.540;2023-02-28T17:31:26;8.10;99.90
52451;DHT22;38366;53.176;6.540;2023-02-28T17:33:53;8.00;99.90
52451;DHT22;38366;53.176;6.540;2023-02-28T17:36:22;7.90;99.90
52451;DHT22;38366;53.176;6.540;2023-02-28T17:38:50;7.80;99.90
52451;DHT22;38366;53.176;6.540;2023-02-28T17:41:15;7.80;99.90
52451;DHT22;38366;53.176;6.540;2023-02-28T17:43:41;7.80;99.90
52451;DHT22;38366;53.176;6.540;2023-02-28T17:46:25;7.70;99.90
52451;DHT22;38366;53.176;6.540;2023-02-28T17:48:53;7.60;99.90
52451;DHT22;38366;53.176;6.540;2023-02-28T17:51:20;7.50;99.90
52451;DHT22;38366;53.176;6.540;2023-02-28T17:53:46;7.40;99.90
52451;DHT22;38366;53.176;6.540;2023-02-28T17:56:18;7.40;99.90
52451;DHT22;38366;53.176;6.540;2023-02-28T17:58:44;7.40;99.90
52451;DHT22;38366;53.176;6.540;2023-02-28T18:01:10;7.30;99.90
52451;DHT22;38366;53.176;6.540;2023-02-28T18:03:37;7.20;99.90
52451;DHT22;38366;53.176;6.540;2023-02-28T18:06:03;7.20;99.90
52451;DHT22;38366;53.176;6.540;2023-02-28T18:08:29;7.10;99.90
52451;DHT22;38366;53.176;6.540;2023-02-28T18:10:56;7.00;99.90
52451;DHT22;38366;53.176;6.540;2023-02-28T18:13:22;6.90;99.90
52451;DHT22;38366;53.176;6.540;2023-02-28T18:15:47;6.90;99.90
52451;DHT22;38366;53.176;6.540;2023-02-28T18:18:13;6.90;99.90
52451;DHT22;38366;53.176;6.540;2023-02-28T18:20:41;6.90;99.90
52451;DHT22;38366;53.176;6.540;2023-02-28T18:23:07;6.80;99.90
52451;DHT22;38366;53.176;6.540;2023-02-28T18:25:32;6.60;99.90
52451;DHT22;38366;53.176;6.540;2023-02-28T18:27:58;6.50;99.90
52451;DHT22;38366;53.176;6.540;2023-02-28T18:30:26;6.40;99.90
52451;DHT22;38366;53.176;6.540;2023-02-28T18:32:53;6.40;99.90